LPL weather

Liverpool John Lennon Airport
Liverpool, England, United Kingdom

Public forecast

Using degrees Celsius for public forecast. Weather courtesy of forecast.io.

Current aviation weather report (METAR) for Liverpool John Lennon Airport

Retrieved 2019/11/17 12:20 UTC (0 seconds ago):

EGGP 171220Z 35006KT 9999 -DZ FEW025 BKN045 08/08 Q1013

Aviation forecast (TAF) for Liverpool John Lennon Airport

Retrieved 2019/11/17 12:00 UTC (2 minutes ago):

TAF EGGP 171103Z 1712/1812 35006KT 9999 FEW010 SCT030 TEMPO 1712/1721 6000 -RA BKN010 PROB30 TEMPO 1712/1718 4000 RA BKN008 PROB30 1800/1810 6000